Time,TemperatureF,DewpointF,PressureIn,WindDirection,WindDirectionDegrees,WindSpeedMPH,WindSpeedGustMPH,Humidity,HourlyPrecipIn,Conditions,Clouds,dailyrainin,SoftwareType,DateUTC
2013-12-15 00:22:00,25.0,13.0,30.29,SW,234,8.0,17.0,61,0.00,,,0.00,,2013-12-15 07:22:00,
2013-12-15 00:52:00,24.0,13.0,30.26,SSW,196,13.0,25.0,63,0.00,,,0.00,,2013-12-15 07:52:00,
2013-12-15 01:22:00,24.0,13.0,30.24,SSW,198,16.0,30.0,62,0.00,,,0.00,,2013-12-15 08:22:00,
2013-12-15 01:52:00,25.0,14.0,30.24,WSW,244,16.0,29.0,62,0.00,,,0.00,,2013-12-15 08:52:00,
2013-12-15 02:21:00,25.0,13.0,30.23,WSW,246,18.0,25.0,61,0.00,,,0.00,,2013-12-15 09:21:00,
2013-12-15 02:53:00,25.0,13.0,30.22,West,271,20.0,29.0,61,0.00,,,0.00,,2013-12-15 09:53:00,
2013-12-15 03:23:00,26.0,14.0,30.22,SW,236,18.0,36.0,61,0.00,,,0.00,,2013-12-15 10:23:00,
2013-12-15 03:53:00,26.0,14.0,30.25,WSW,253,17.0,33.0,61,0.00,,,0.00,,2013-12-15 10:53:00,
2013-12-15 04:21:00,27.0,15.0,30.23,WNW,288,13.0,30.0,61,0.00,,,0.00,,2013-12-15 11:21:00,
2013-12-15 04:52:00,27.0,16.0,30.25,WSW,244,19.0,34.0,62,0.00,,,0.00,,2013-12-15 11:52:00,
2013-12-15 05:22:00,27.0,16.0,30.24,West,263,21.0,36.0,63,0.00,,,0.00,,2013-12-15 12:22:00,
2013-12-15 05:52:00,26.0,16.0,30.27,SW,229,13.0,20.0,65,0.00,,,0.00,,2013-12-15 12:52:00,
2013-12-15 06:11:00,27.0,16.0,30.27,WSW,257,17.0,28.0,64,0.00,,,0.00,,2013-12-15 13:11:00,
2013-12-15 06:21:00,27.0,16.0,30.27,WSW,257,17.0,28.0,64,0.00,,,0.00,,2013-12-15 13:21:00,
2013-12-15 06:52:00,26.0,16.0,30.26,WSW,240,13.0,23.0,65,0.00,,,0.00,,2013-12-15 13:52:00,
2013-12-15 07:22:00,26.0,16.0,30.26,WSW,238,14.0,20.0,65,0.00,,,0.00,,2013-12-15 14:22:00,
2013-12-15 07:52:00,26.0,16.0,30.28,SW,223,15.0,19.0,65,0.00,,,0.00,,2013-12-15 14:52:00,
2013-12-15 08:22:00,27.0,16.0,30.28,WSW,244,13.0,21.0,63,0.00,,,0.00,,2013-12-15 15:22:00,
2013-12-15 08:53:00,29.0,16.0,30.29,WSW,246,12.0,22.0,59,0.00,,,0.00,,2013-12-15 15:53:00,
2013-12-15 09:23:00,32.0,17.0,30.26,WSW,252,3.0,25.0,53,0.00,,,0.00,,2013-12-15 16:23:00,
2013-12-15 09:53:00,32.0,16.0,30.27,West,269,19.0,31.0,51,0.00,,,0.00,,2013-12-15 16:53:00,
2013-12-15 10:22:00,34.0,16.0,30.29,NW,315,9.0,22.0,48,0.00,,,0.00,,2013-12-15 17:22:00,
2013-12-15 10:42:00,35.0,16.0,30.29,SW,229,12.0,18.0,45,0.00,,,0.00,,2013-12-15 17:42:00,
2013-12-15 10:52:00,36.0,17.0,30.29,SW,218,12.0,18.0,46,0.00,,,0.00,,2013-12-15 17:52:00,
2013-12-15 11:21:00,35.0,17.0,30.25,SW,228,20.0,34.0,47,0.00,,,0.00,,2013-12-15 18:21:00,
2013-12-15 11:52:00,36.0,17.0,30.25,WSW,239,26.0,37.0,46,0.00,,,0.00,,2013-12-15 18:52:00,
2013-12-15 12:21:00,37.0,17.0,30.25,SSW,213,18.0,35.0,43,0.00,,,0.00,,2013-12-15 19:21:00,
2013-12-15 12:52:00,38.0,18.0,30.25,West,260,20.0,33.0,43,0.00,,,0.00,,2013-12-15 19:52:00,
2013-12-15 13:22:00,40.0,19.0,30.23,SSW,212,17.0,25.0,42,0.00,,,0.00,,2013-12-15 20:22:00,
2013-12-15 13:52:00,39.0,16.0,30.25,West,273,13.0,29.0,39,0.00,,,0.00,,2013-12-15 20:52:00,
2013-12-15 14:21:00,40.0,16.0,30.24,NW,318,9.0,22.0,37,0.00,,,0.00,,2013-12-15 21:21:00,
2013-12-15 14:54:00,40.0,16.0,30.24,ESE,105,1.0,14.0,37,0.00,,,0.00,,2013-12-15 21:54:00,
2013-12-15 15:23:00,40.0,16.0,30.23,South,181,5.0,22.0,38,0.00,,,0.00,,2013-12-15 22:23:00,
2013-12-15 15:43:00,39.0,16.0,30.24,SW,228,7.0,23.0,39,0.00,,,0.00,,2013-12-15 22:43:00,
2013-12-15 15:52:00,39.0,16.0,30.24,South,190,5.0,15.0,39,0.00,,,0.00,,2013-12-15 22:52:00,
2013-12-15 16:22:00,37.0,16.0,30.22,South,170,10.0,20.0,42,0.00,,,0.00,,2013-12-15 23:22:00,
2013-12-15 16:52:00,36.0,16.0,30.22,SSW,194,8.0,25.0,43,0.00,,,0.00,,2013-12-15 23:52:00,
2013-12-15 17:22:00,36.0,15.0,30.27,ENE,67,3.0,15.0,42,0.00,,,0.00,,2013-12-16 00:22:00,
2013-12-15 17:52:00,33.0,16.0,30.26,South,184,2.0,10.0,50,0.00,,,0.00,,2013-12-16 00:52:00,
2013-12-15 18:22:00,34.0,14.0,30.25,WSW,243,7.0,20.0,44,0.00,,,0.00,,2013-12-16 01:22:00,
2013-12-15 18:52:00,33.0,15.0,30.24,South,187,15.0,25.0,47,0.00,,,0.00,,2013-12-16 01:52:00,
2013-12-15 19:22:00,35.0,15.0,30.24,South,177,15.0,26.0,43,0.00,,,0.00,,2013-12-16 02:22:00,
2013-12-15 19:52:00,34.0,15.0,30.24,SSW,194,17.0,30.0,45,0.00,,,0.00,,2013-12-16 02:52:00,
2013-12-15 20:21:00,34.0,14.0,30.23,South,179,14.0,30.0,44,0.00,,,0.00,,2013-12-16 03:21:00,
2013-12-15 20:54:00,34.0,14.0,30.22,SSW,206,17.0,25.0,44,0.00,,,0.00,,2013-12-16 03:54:00,
2013-12-15 21:23:00,34.0,14.0,30.20,SSW,201,13.0,27.0,44,0.00,,,0.00,,2013-12-16 04:23:00,
2013-12-15 21:53:00,34.0,14.0,30.24,SSW,200,3.0,11.0,43,0.00,,,0.00,,2013-12-16 04:53:00,
2013-12-15 22:22:00,34.0,13.0,30.26,SE,125,2.0,13.0,41,0.00,,,0.00,,2013-12-16 05:22:00,
2013-12-15 22:53:00,34.0,13.0,30.24,SSW,194,15.0,22.0,42,0.00,,,0.00,,2013-12-16 05:53:00,
2013-12-15 23:22:00,34.0,13.0,30.24,South,183,9.0,24.0,41,0.00,,,0.00,,2013-12-16 06:22:00,
2013-12-15 23:52:00,34.0,13.0,30.24,SSE,156,7.0,12.0,41,0.00,,,0.00,,2013-12-16 06:52:00,